Time;durP1;ratioP1;P1;durP2;ratioP2;P2;SDS_P1;SDS_P2;PMS_P1;PMS_P2;Temp;Humidity;BMP_temperature;BMP_pressure;BME280_temperature;BME280_humidity;BME280_pressure;Samples;Min_cycle;Max_cycle;Signal;HPM_P1;HPM_P2
2022/11/12 00:00:39;;;;;;;36.83;24.95;;;256.80;2252.80;;;;;;5133894;27;20042;-77
2022/11/12 00:03:05;;;;;;;31.05;22.48;;;256.50;2252.80;;;;;;5133645;27;20047;-76
2022/11/12 00:05:31;;;;;;;45.63;35.55;;;256.50;2252.80;;;;;;5133720;27;20392;-78
2022/11/12 00:07:57;;;;;;;26.83;17.98;;;256.40;2252.80;;;;;;5133873;27;20479;-78
2022/11/12 00:10:23;;;;;;;27.00;19.40;;;256.50;2252.80;;;;;;5133598;27;20114;-63
2022/11/12 00:12:49;;;;;;;23.60;16.55;;;256.50;2252.80;;;;;;5134009;27;20023;-75
2022/11/12 00:15:15;;;;;;;20.65;15.88;;;256.60;2252.80;;;;;;5133543;27;20354;-70
2022/11/12 00:17:41;;;;;;;29.60;17.75;;;256.80;2252.80;;;;;;5131847;27;20037;-68
2022/11/12 00:20:07;;;;;;;30.35;16.67;;;256.80;2252.80;;;;;;5133499;27;20062;-73
2022/11/12 00:22:33;;;;;;;23.75;15.52;;;256.80;2252.80;;;;;;5132576;27;20030;-76
2022/11/12 00:24:59;;;;;;;22.70;15.10;;;256.90;2252.80;;;;;;5133320;27;20488;-76
2022/11/12 00:27:24;;;;;;;23.13;14.45;;;256.90;2252.80;;;;;;5133146;27;20023;-75
2022/11/12 00:29:50;;;;;;;21.27;15.18;;;256.90;2252.80;;;;;;5133377;27;20031;-76
2022/11/12 00:32:16;;;;;;;20.05;13.98;;;256.80;2252.80;;;;;;5132989;27;20027;-76
2022/11/12 00:34:42;;;;;;;21.38;14.82;;;256.90;2252.80;;;;;;5133071;27;20023;-76
2022/11/12 00:37:07;;;;;;;25.35;17.80;;;256.90;2252.80;;;;;;5132973;27;20019;-76
2022/11/12 00:39:33;;;;;;;31.60;23.23;;;256.80;2252.80;;;;;;5132780;27;20082;-76
2022/11/12 00:41:59;;;;;;;30.38;21.20;;;256.80;2252.80;;;;;;5139750;27;20374;-77
2022/11/12 00:44:26;;;;;;;31.80;21.83;;;256.60;2252.80;;;;;;5153571;27;20056;-76
2022/11/12 00:46:52;;;;;;;33.38;24.17;;;256.50;2252.80;;;;;;5153624;27;20019;-74
2022/11/12 00:49:17;;;;;;;34.42;23.80;;;256.70;2252.80;;;;;;5153786;27;20025;-77
2022/11/12 00:51:43;;;;;;;32.47;24.02;;;256.20;2252.80;;;;;;5153284;27;20054;-76
2022/11/12 00:54:09;;;;;;;36.38;24.42;;;256.00;2252.80;;;;;;5153461;27;20487;-74
2022/11/12 00:56:35;;;;;;;31.38;22.67;;;231.30;2252.80;;;;;;5153283;27;20030;-76
2022/11/12 00:59:00;;;;;;;43.50;26.58;;;231.30;2252.80;;;;;;5153416;27;20588;-77
2022/11/12 01:01:26;;;;;;;32.70;21.38;;;231.30;2252.80;;;;;;5153343;27;20517;-68
2022/11/12 01:03:52;;;;;;;31.80;21.52;;;231.30;2252.80;;;;;;5153130;27;20025;-75
2022/11/12 01:06:21;;;;;;;27.60;20.38;;;231.30;2252.80;;;;;;5153216;27;20034;-76
2022/11/12 01:08:48;;;;;;;28.25;17.83;;;231.20;2252.80;;;;;;5153076;27;20023;-79
2022/11/12 01:11:17;;;;;;;27.50;17.60;;;231.30;2252.80;;;;;;5153076;27;20035;-74
2022/11/12 01:13:45;;;;;;;30.05;19.88;;;231.30;2252.80;;;;;;5152946;27;20476;-73
2022/11/12 01:16:19;;;;;;;28.42;19.52;;;231.20;2252.80;;;;;;5152988;27;20095;-76
2022/11/12 01:18:46;;;;;;;30.48;19.60;;;231.30;2252.80;;;;;;5153064;27;20046;-79
2022/11/12 01:21:13;;;;;;;28.90;20.95;;;256.10;2252.80;;;;;;5152781;27;20425;-77
2022/11/12 01:23:42;;;;;;;30.23;21.75;;;256.00;2252.80;;;;;;5153006;27;20093;-79
2022/11/12 01:26:14;;;;;;;32.88;21.45;;;231.30;2252.80;;;;;;5152865;27;20472;-80
2022/11/12 01:28:40;;;;;;;28.17;20.50;;;231.30;2252.80;;;;;;5152877;27;20408;-79
2022/11/12 01:31:19;;;;;;;28.42;19.23;;;231.20;2252.80;;;;;;5152948;27;20109;-79
2022/11/12 01:33:47;;;;;;;28.15;18.45;;;231.30;2252.80;;;;;;5151821;27;20106;-78
2022/11/12 01:36:15;;;;;;;30.73;18.80;;;231.30;2252.80;;;;;;5152271;27;20472;-79
2022/11/12 01:38:42;;;;;;;24.40;16.85;;;256.10;2252.80;;;;;;5152396;27;20575;-64
2022/11/12 01:41:10;;;;;;;32.65;21.33;;;256.10;2252.80;;;;;;5152564;27;20079;-79
2022/11/12 01:43:36;;;;;;;23.38;15.15;;;256.20;2252.80;;;;;;5152587;27;20043;-79
2022/11/12 01:46:09;;;;;;;22.10;15.07;;;256.20;2252.80;;;;;;5152637;27;20049;-77
2022/11/12 01:48:40;;;;;;;21.42;15.60;;;256.30;2252.80;;;;;;5152467;27;20524;-76
2022/11/12 01:51:06;;;;;;;23.73;16.08;;;256.40;2252.80;;;;;;5152281;27;20030;-79
2022/11/12 01:53:39;;;;;;;24.83;17.77;;;256.50;2252.80;;;;;;5152253;27;20079;-74
2022/11/12 01:56:06;;;;;;;20.58;15.15;;;256.40;2252.80;;;;;;5152181;27;20019;-77
2022/11/12 01:58:34;;;;;;;25.52;14.43;;;256.30;2252.80;;;;;;5152175;27;20443;-77
2022/11/12 02:01:02;;;;;;;25.45;16.10;;;256.10;2252.80;;;;;;5152559;27;20034;-74
2022/11/12 02:03:27;;;;;;;21.30;15.45;;;256.00;2252.80;;;;;;5152172;27;20023;-69
2022/11/12 02:06:14;;;;;;;22.52;14.20;;;256.10;2252.80;;;;;;5151870;27;20159;-69
2022/11/12 02:08:40;;;;;;;18.92;15.00;;;256.00;2252.80;;;;;;5151916;27;20031;-76
2022/11/12 02:11:24;;;;;;;17.92;14.30;;;231.30;2252.80;;;;;;5152296;27;20039;-75
2022/11/12 02:14:03;;;;;;;21.17;14.13;;;231.30;2252.80;;;;;;5152161;27;20151;-76
2022/11/12 02:16:32;;;;;;;20.20;13.65;;;231.30;2252.80;;;;;;5152185;27;20380;-77
2022/11/12 02:18:58;;;;;;;20.15;13.50;;;231.30;2252.80;;;;;;5152038;27;20163;-77
2022/11/12 02:21:24;;;;;;;24.90;17.25;;;231.30;2252.80;;;;;;5151678;27;20113;-75
2022/11/12 02:24:03;;;;;;;20.58;13.73;;;256.00;2252.80;;;;;;5152420;27;20063;-77
2022/11/12 02:26:32;;;;;;;20.77;14.35;;;231.30;2252.80;;;;;;5151874;27;20484;-76
2022/11/12 02:28:58;;;;;;;24.88;15.52;;;231.20;2252.80;;;;;;5151699;27;20019;-76
2022/11/12 02:31:24;;;;;;;23.23;15.65;;;231.10;2252.80;;;;;;5151727;27;20026;-74
2022/11/12 02:33:50;;;;;;;23.73;15.88;;;231.10;2252.80;;;;;;5152017;27;20018;-78
2022/11/12 02:36:16;;;;;;;24.48;16.60;;;231.10;2252.80;;;;;;5151463;27;20038;-77
2022/11/12 02:38:41;;;;;;;22.50;14.65;;;231.00;2252.80;;;;;;5151552;27;20468;-63
2022/11/12 02:41:07;;;;;;;22.60;17.35;;;231.00;2252.80;;;;;;5151562;27;20038;-76
2022/11/12 02:43:33;;;;;;;20.67;15.00;;;231.00;2252.80;;;;;;5151497;27;20046;-76
2022/11/12 02:45:58;;;;;;;21.58;14.85;;;231.20;2252.80;;;;;;5158369;27;20026;-77
2022/11/12 02:48:24;;;;;;;18.25;14.07;;;231.30;2252.80;;;;;;5158461;27;20022;-76
2022/11/12 02:50:50;;;;;;;22.15;13.65;;;256.00;2252.80;;;;;;5158646;27;20035;-76
2022/11/12 02:53:16;;;;;;;21.90;16.02;;;231.30;2252.80;;;;;;5158107;27;20396;-76
2022/11/12 02:55:42;;;;;;;25.20;16.65;;;231.30;2252.80;;;;;;5158365;27;20034;-68
2022/11/12 02:58:08;;;;;;;18.25;14.05;;;256.00;2252.80;;;;;;5158539;27;20049;-75
2022/11/12 03:00:34;;;;;;;23.52;14.90;;;256.20;2252.80;;;;;;5158191;27;20474;-75
2022/11/12 03:03:00;;;;;;;22.27;14.07;;;256.30;2252.80;;;;;;5158446;27;20024;-76
2022/11/12 03:05:31;;;;;;;26.17;19.42;;;256.40;2252.80;;;;;;5139436;27;20384;-76
2022/11/12 03:08:01;;;;;;;22.60;15.52;;;256.50;2252.80;;;;;;5158101;27;20022;-77
2022/11/12 03:10:27;;;;;;;18.23;13.57;;;256.50;2252.80;;;;;;5158317;27;20162;-79
2022/11/12 03:12:56;;;;;;;23.23;15.23;;;256.40;2252.80;;;;;;5139876;27;20027;-80
2022/11/12 03:15:22;;;;;;;20.05;14.32;;;256.40;2252.80;;;;;;5158290;27;20025;-78
2022/11/12 03:17:47;;;;;;;17.30;14.50;;;256.50;2252.80;;;;;;5158223;27;20019;-80
2022/11/12 03:20:14;;;;;;;21.50;13.25;;;256.40;2252.80;;;;;;5157928;27;20099;-79
2022/11/12 03:22:40;;;;;;;18.85;14.13;;;256.40;2252.80;;;;;;5158203;27;20025;-80
2022/11/12 03:25:07;;;;;;;23.52;18.88;;;256.40;2252.80;;;;;;5157944;27;20022;-76
2022/11/12 03:27:32;;;;;;;20.00;15.40;;;256.50;2252.80;;;;;;5157952;27;20033;-79
2022/11/12 03:29:58;;;;;;;25.75;14.15;;;256.30;2252.80;;;;;;5158220;27;20102;-79
2022/11/12 03:32:24;;;;;;;20.10;14.70;;;256.40;2252.80;;;;;;5158109;27;20054;-75
2022/11/12 03:34:50;;;;;;;16.73;12.38;;;256.40;2252.80;;;;;;5158275;27;20464;-80
2022/11/12 03:37:16;;;;;;;16.98;13.48;;;256.40;2252.80;;;;;;5158063;27;20490;-81
2022/11/12 03:39:42;;;;;;;18.00;12.88;;;256.30;2252.80;;;;;;5157641;27;20105;-76
2022/11/12 03:42:08;;;;;;;17.80;13.68;;;256.20;2252.80;;;;;;5158083;27;20404;-76
2022/11/12 03:44:34;;;;;;;17.88;13.27;;;256.20;2252.80;;;;;;5157835;27;20030;-77
2022/11/12 03:47:00;;;;;;;18.98;14.18;;;256.20;2252.80;;;;;;5158082;27;20026;-75
2022/11/12 03:49:25;;;;;;;22.27;14.70;;;256.30;2252.80;;;;;;5158264;27;20022;-80
2022/11/12 03:51:51;;;;;;;31.48;23.35;;;256.40;2252.80;;;;;;5157859;27;20015;-74
2022/11/12 03:54:18;;;;;;;20.45;14.20;;;256.50;2252.80;;;;;;5158172;27;20109;-76
2022/11/12 03:56:44;;;;;;;31.05;15.50;;;256.40;2252.80;;;;;;5154443;27;20091;-76
2022/11/12 03:59:10;;;;;;;32.38;14.57;;;256.50;2252.80;;;;;;5154832;27;20059;-76
2022/11/12 04:01:36;;;;;;;23.88;14.02;;;256.50;2252.80;;;;;;5154458;27;20384;-78
2022/11/12 04:04:01;;;;;;;20.10;13.65;;;256.50;2252.80;;;;;;5135505;27;20026;-78
2022/11/12 04:09:11;;;;;;;18.58;14.75;;;256.50;2252.80;;;;;;5154174;27;20175;-77
2022/11/12 04:11:37;;;;;;;19.25;13.05;;;256.40;2252.80;;;;;;5154487;27;20109;-78
2022/11/12 04:14:03;;;;;;;29.00;16.10;;;256.40;2252.80;;;;;;5154179;27;20026;-78
2022/11/12 04:21:59;;;;;;;27.98;18.30;;;256.50;2252.80;;;;;;5154443;27;20045;-78
2022/11/12 04:27:17;;;;;;;27.50;17.48;;;256.50;2252.80;;;;;;5159648;27;20049;-69
2022/11/12 04:32:29;;;;;;;40.35;29.35;;;256.70;2252.80;;;;;;5154476;27;20018;-76
2022/11/12 04:34:55;;;;;;;29.30;19.30;;;256.70;2252.80;;;;;;5134851;27;20119;-80
2022/11/12 04:37:22;;;;;;;21.90;15.02;;;256.70;2252.80;;;;;;5153840;27;20052;-71
2022/11/12 04:39:48;;;;;;;27.92;20.38;;;256.60;2252.80;;;;;;5153655;27;20388;-79
2022/11/12 04:44:58;;;;;;;29.92;19.77;;;256.50;2252.80;;;;;;5154046;27;20057;-76
2022/11/12 04:47:25;;;;;;;40.33;24.17;;;256.60;2252.80;;;;;;5153766;27;20396;-76
2022/11/12 04:49:51;;;;;;;32.17;21.00;;;256.60;2252.80;;;;;;5154037;27;20835;-65
2022/11/12 04:52:17;;;;;;;29.88;21.73;;;256.80;2252.80;;;;;;5153558;27;20022;-76
2022/11/12 04:54:42;;;;;;;27.75;20.58;;;256.90;2252.80;;;;;;5153404;27;20095;-76
2022/11/12 04:57:08;;;;;;;30.15;21.33;;;256.90;2252.80;;;;;;5153508;27;20026;-75
2022/11/12 04:59:34;;;;;;;32.25;21.45;;;281.60;2278.40;;;;;;5153182;27;20453;-78
2022/11/12 05:02:00;;;;;;;29.33;21.33;;;256.90;2252.80;;;;;;5153448;27;20042;-79
2022/11/12 05:04:27;;;;;;;29.00;20.63;;;281.70;2278.40;;;;;;5153131;27;20516;-77
2022/11/12 05:06:55;;;;;;;32.65;21.42;;;281.60;2278.40;;;;;;5152916;27;20390;-71
2022/11/12 05:09:23;;;;;;;28.25;21.30;;;281.60;2278.40;;;;;;5153092;27;20027;-76
2022/11/12 05:11:49;;;;;;;27.77;20.05;;;281.70;2278.40;;;;;;5153671;27;20026;-78
2022/11/12 05:14:15;;;;;;;28.15;19.33;;;281.70;2278.40;;;;;;5152989;27;20106;-79
2022/11/12 05:16:41;;;;;;;36.08;23.15;;;281.70;2278.40;;;;;;5153015;27;20101;-76
2022/11/12 05:19:06;;;;;;;35.42;23.00;;;281.60;2278.40;;;;;;5153079;27;20018;-64
2022/11/12 05:24:16;;;;;;;34.70;18.98;;;281.70;2278.40;;;;;;5153674;27;20033;-78
2022/11/12 05:26:42;;;;;;;58.20;33.97;;;281.80;2278.40;;;;;;5134113;27;20035;-77
2022/11/12 05:29:08;;;;;;;71.30;41.88;;;281.80;2278.40;;;;;;5152933;27;20019;-80
2022/11/12 05:31:34;;;;;;;54.10;35.78;;;281.70;2278.40;;;;;;5152604;27;20057;-79
2022/11/12 05:33:59;;;;;;;52.45;33.35;;;281.60;2278.40;;;;;;5152763;27;20070;-79
2022/11/12 05:36:25;;;;;;;69.75;43.75;;;256.80;2252.80;;;;;;5152657;27;20062;-79
2022/11/12 05:38:51;;;;;;;67.15;40.75;;;256.80;2252.80;;;;;;5152341;27;20041;-79
2022/11/12 05:41:16;;;;;;;66.75;40.55;;;256.70;2252.80;;;;;;5152616;27;20034;-81
2022/11/12 05:43:42;;;;;;;85.78;51.67;;;256.60;2252.80;;;;;;5152403;27;20023;-80
2022/11/12 05:46:08;;;;;;;83.22;47.03;;;256.60;2252.80;;;;;;5152756;27;20030;-79
2022/11/12 05:48:34;;;;;;;84.45;44.65;;;256.60;2252.80;;;;;;5152169;27;20491;-70
2022/11/12 05:50:59;;;;;;;77.53;44.95;;;256.60;2252.80;;;;;;5152546;27;20019;-80
2022/11/12 05:53:25;;;;;;;79.43;42.95;;;256.70;2252.80;;;;;;5151977;27;20425;-79
2022/11/12 05:55:51;;;;;;;63.22;38.22;;;256.60;2252.80;;;;;;5152471;27;20086;-77
2022/11/12 05:58:17;;;;;;;63.80;38.67;;;256.80;2252.80;;;;;;5152341;27;20165;-79
2022/11/12 06:00:42;;;;;;;67.22;40.58;;;256.70;2252.80;;;;;;5152136;27;20026;-78
2022/11/12 06:03:09;;;;;;;65.63;41.28;;;256.80;2252.80;;;;;;5152454;27;20464;-78
2022/11/12 06:05:35;;;;;;;73.93;43.65;;;256.80;2252.80;;;;;;5151971;27;20026;-78
2022/11/12 06:08:04;;;;;;;78.38;46.67;;;256.80;2252.80;;;;;;5151973;27;20101;-79
2022/11/12 06:10:31;;;;;;;86.07;49.83;;;256.90;2252.80;;;;;;5152201;27;20029;-78
2022/11/12 06:12:57;;;;;;;60.17;38.30;;;256.70;2252.80;;;;;;5152141;27;20027;-78
2022/11/12 06:15:25;;;;;;;53.55;34.63;;;256.60;2252.80;;;;;;5152067;27;20030;-66
2022/11/12 06:17:52;;;;;;;65.95;41.38;;;256.60;2252.80;;;;;;5152123;27;20439;-66
2022/11/12 06:20:18;;;;;;;63.10;36.05;;;256.60;2252.80;;;;;;5151408;27;20034;-73
2022/11/12 06:22:44;;;;;;;68.40;35.42;;;256.80;2252.80;;;;;;5151688;27;20015;-78
2022/11/12 06:25:10;;;;;;;60.65;35.63;;;256.90;2252.80;;;;;;5152118;27;20054;-80
2022/11/12 06:27:36;;;;;;;53.88;33.47;;;281.70;2278.40;;;;;;5151772;27;20038;-77
2022/11/12 06:30:03;;;;;;;51.78;33.90;;;281.70;2278.40;;;;;;5151631;27;20472;-70
2022/11/12 06:32:29;;;;;;;58.05;36.83;;;281.90;2278.40;;;;;;5151907;27;20019;-75
2022/11/12 06:34:55;;;;;;;60.33;38.45;;;282.00;2278.40;;;;;;5151625;27;20122;-76
2022/11/12 06:37:20;;;;;;;48.13;32.33;;;281.80;2278.40;;;;;;5151908;27;20137;-77
2022/11/12 06:39:47;;;;;;;41.67;30.15;;;282.00;2278.40;;;;;;5151359;27;20038;-75
2022/11/12 06:42:13;;;;;;;52.75;32.38;;;282.00;2278.40;;;;;;5151441;27;20051;-75
2022/11/12 06:44:38;;;;;;;57.92;35.45;;;281.70;2278.40;;;;;;5151855;27;20376;-64
2022/11/12 06:47:04;;;;;;;68.47;46.40;;;281.70;2278.40;;;;;;5151522;27;20026;-76
2022/11/12 06:49:30;;;;;;;61.97;43.17;;;281.80;2278.40;;;;;;5143378;27;20062;-79
2022/11/12 06:51:55;;;;;;;67.38;41.72;;;281.70;2278.40;;;;;;5130678;28;20469;-71
2022/11/12 06:54:21;;;;;;;56.80;36.22;;;281.90;2278.40;;;;;;5130897;28;20019;-75
2022/11/12 06:56:47;;;;;;;48.22;33.13;;;282.10;2278.40;;;;;;5130892;28;20437;-75
2022/11/12 06:59:13;;;;;;;47.33;32.05;;;282.30;2278.40;;;;;;5130657;28;20019;-76
2022/11/12 07:01:38;;;;;;;59.88;41.05;;;282.20;2278.40;;;;;;5130728;28;20035;-76
2022/11/12 07:04:04;;;;;;;45.25;31.48;;;282.00;2278.40;;;;;;5130683;28;20023;-64
2022/11/12 07:06:30;;;;;;;43.28;29.83;;;282.10;2278.40;;;;;;5130939;28;20381;-74
2022/11/12 07:08:56;;;;;;;52.58;37.90;;;281.90;2278.40;;;;;;5130359;28;20095;-75
2022/11/12 07:11:21;;;;;;;58.47;39.78;;;281.80;2278.40;;;;;;5131110;28;20117;-77
2022/11/12 07:13:47;;;;;;;56.58;34.45;;;281.80;2278.40;;;;;;5131032;28;20461;-75
2022/11/12 07:16:17;;;;;;;39.90;29.65;;;281.70;2278.40;;;;;;5130494;28;20024;-74
2022/11/12 07:18:47;;;;;;;37.80;24.05;;;281.70;2278.40;;;;;;5130509;28;20042;-77
2022/11/12 07:21:16;;;;;;;34.20;23.60;;;281.80;2278.40;;;;;;5133303;28;20027;-75
2022/11/12 07:23:42;;;;;;;30.75;21.80;;;281.90;2278.40;;;;;;5144350;28;20026;-69
2022/11/12 07:26:13;;;;;;;29.35;19.90;;;282.00;2278.40;;;;;;5142051;28;20531;-76
2022/11/12 07:28:39;;;;;;;34.08;21.70;;;282.20;2278.40;;;;;;5132938;28;20020;-77
2022/11/12 07:31:08;;;;;;;36.00;25.02;;;282.50;2278.40;;;;;;5131617;27;20027;-78
2022/11/12 07:33:34;;;;;;;34.28;24.70;;;307.20;2304.00;;;;;;5134477;27;20019;-76
2022/11/12 07:36:05;;;;;;;40.10;26.13;;;307.30;2304.00;;;;;;5134691;27;20071;-75
2022/11/12 07:38:33;;;;;;;37.88;24.67;;;307.60;2304.00;;;;;;5134262;27;20511;-79
2022/11/12 07:41:06;;;;;;;34.38;25.02;;;307.80;2304.00;;;;;;5134485;27;20031;-78
2022/11/12 07:43:34;;;;;;;30.23;22.67;;;307.90;2304.00;;;;;;5134389;27;20047;-73
2022/11/12 07:46:07;;;;;;;35.22;24.42;;;307.90;2304.00;;;;;;5134993;27;20035;-79
2022/11/12 07:48:33;;;;;;;32.45;21.90;;;308.10;2304.00;;;;;;5134629;27;20055;-77
2022/11/12 07:51:07;;;;;;;34.03;22.55;;;332.90;2329.60;;;;;;5134375;27;20070;-78
2022/11/12 07:53:33;;;;;;;39.65;25.15;;;333.30;2329.60;;;;;;5133872;27;20031;-73
2022/11/12 07:56:00;;;;;;;62.17;46.78;;;333.50;2329.60;;;;;;5134239;27;20019;-74
2022/11/12 07:58:29;;;;;;;39.58;33.00;;;333.70;2329.60;;;;;;5133714;27;20020;-78
2022/11/12 08:00:54;;;;;;;42.70;33.20;;;333.70;2329.60;;;;;;5133698;27;20061;-78
2022/11/12 08:03:20;;;;;;;38.03;26.63;;;358.50;2329.60;;;;;;5134101;27;20473;-64
2022/11/12 08:05:46;;;;;;;38.20;25.52;;;358.80;2329.60;;;;;;5133676;27;20026;-74
2022/11/12 08:08:12;;;;;;;33.38;25.42;;;359.10;2329.60;;;;;;5133354;27;20023;-72
2022/11/12 08:10:38;;;;;;;33.70;23.67;;;384.00;2329.60;;;;;;5134006;27;20087;-75
2022/11/12 08:13:04;;;;;;;34.50;22.90;;;384.60;2329.60;;;;;;5133550;27;20016;-75
2022/11/12 08:15:31;;;;;;;52.30;42.17;;;410.10;2355.20;;;;;;5133562;27;20118;-76
2022/11/12 08:17:57;;;;;;;33.25;26.40;;;461.10;2380.80;;;;;;5134829;27;20030;-78
2022/11/12 08:20:23;;;;;;;38.95;31.60;;;486.90;2355.20;;;;;;5133619;27;20540;-77
2022/11/12 08:22:49;;;;;;;38.10;29.85;;;512.00;2176.00;;;;;;5133709;27;20023;-78
2022/11/12 08:25:15;;;;;;;40.55;32.70;;;512.30;2124.80;;;;;;5139072;27;20023;-78
2022/11/12 08:27:41;;;;;;;45.40;35.28;;;486.50;2227.20;;;;;;5139479;27;20031;-75
2022/11/12 08:30:07;;;;;;;37.00;24.58;;;461.60;2304.00;;;;;;5133542;27;20402;-78
2022/11/12 08:32:33;;;;;;;33.55;24.95;;;461.20;2380.80;;;;;;5133243;27;20023;-77
2022/11/12 08:34:59;;;;;;;30.90;24.73;;;461.50;2304.00;;;;;;5147883;27;20109;-75
2022/11/12 08:37:25;;;;;;;31.25;23.92;;;436.10;2355.20;;;;;;5153968;27;20026;-75
2022/11/12 08:39:50;;;;;;;41.75;28.02;;;436.10;2355.20;;;;;;5154261;27;20035;-73
2022/11/12 08:42:16;;;;;;;35.05;25.77;;;435.90;2355.20;;;;;;5153516;27;20065;-76
2022/11/12 08:44:44;;;;;;;38.28;26.27;;;435.80;2355.20;;;;;;5154478;27;20042;-77
2022/11/12 08:47:10;;;;;;;158.23;133.57;;;435.40;2355.20;;;;;;5153896;27;20488;-77
2022/11/12 08:49:36;;;;;;;51.90;36.75;;;435.60;2355.20;;;;;;5154326;27;20029;-79
2022/11/12 08:52:02;;;;;;;52.92;34.70;;;410.50;2355.20;;;;;;5153421;27;20043;-66
2022/11/12 08:54:29;;;;;;;56.63;43.92;;;435.30;2355.20;;;;;;5153536;27;20376;-77
2022/11/12 08:56:54;;;;;;;110.68;94.13;;;435.80;2355.20;;;;;;5153439;27;20031;-78
2022/11/12 08:59:20;;;;;;;64.05;48.20;;;461.00;2380.80;;;;;;5141925;27;20038;-78
2022/11/12 09:01:46;;;;;;;51.95;39.25;;;461.00;2380.80;;;;;;5153370;27;20484;-80
2022/11/12 09:04:11;;;;;;;48.97;35.05;;;461.30;2355.20;;;;;;5153481;27;20019;-75
2022/11/12 09:06:37;;;;;;;41.95;34.95;;;461.70;2304.00;;;;;;5153480;27;20053;-77
2022/11/12 09:09:03;;;;;;;57.20;45.03;;;487.00;2201.60;;;;;;5152870;27;20019;-75
2022/11/12 09:11:29;;;;;;;53.33;42.67;;;512.10;2124.80;;;;;;5134824;27;20039;-79
2022/11/12 09:13:54;;;;;;;47.05;40.55;;;537.90;2073.60;;;;;;5153162;27;20107;-67
2022/11/12 09:16:20;;;;;;;52.08;46.63;;;537.80;2022.40;;;;;;5153477;27;20026;-65
2022/11/12 09:18:47;;;;;;;34.00;30.27;;;537.90;2022.40;;;;;;5153213;27;20023;-67
2022/11/12 09:21:13;;;;;;;45.38;40.42;;;537.60;2022.40;;;;;;5152932;27;20502;-60
2022/11/12 09:23:39;;;;;;;32.95;29.48;;;537.60;2022.40;;;;;;5153085;27;20043;-66
2022/11/12 09:26:05;;;;;;;40.67;34.22;;;537.80;1996.80;;;;;;5152877;27;20050;-66
2022/11/12 09:28:31;;;;;;;34.95;28.63;;;538.30;1945.60;;;;;;5152807;27;20515;-60
2022/11/12 09:30:57;;;;;;;38.25;31.98;;;512.40;1996.80;;;;;;5152884;27;20027;-66
2022/11/12 09:33:26;;;;;;;27.92;23.77;;;487.10;2048.00;;;;;;5152983;27;20027;-65
2022/11/12 09:35:53;;;;;;;24.17;20.85;;;486.40;2150.40;;;;;;5152808;27;20345;-65
2022/11/12 09:38:19;;;;;;;26.75;23.92;;;487.20;2073.60;;;;;;5151683;27;20076;-66
2022/11/12 09:41:00;;;;;;;30.83;25.25;;;486.70;2124.80;;;;;;5147852;27;20031;-67
2022/11/12 09:43:33;;;;;;;31.50;25.17;;;486.70;2150.40;;;;;;5152487;27;20131;-65
2022/11/12 09:46:07;;;;;;;31.52;22.80;;;486.70;2124.80;;;;;;5152659;27;20464;-67
2022/11/12 09:48:41;;;;;;;23.48;21.08;;;512.40;2048.00;;;;;;5152398;27;20027;-66
2022/11/12 09:51:20;;;;;;;39.40;35.25;;;487.10;2073.60;;;;;;5152470;27;20019;-66
2022/11/12 09:53:56;;;;;;;39.53;33.22;;;512.70;2022.40;;;;;;5151437;27;20102;-66
2022/11/12 09:56:23;;;;;;;36.38;32.58;;;512.80;2022.40;;;;;;5152287;27;20040;-67
2022/11/12 09:58:50;;;;;;;44.30;30.77;;;512.40;2022.40;;;;;;5152845;27;20029;-62
2022/11/12 10:01:42;;;;;;;35.60;27.50;;;486.70;2099.20;;;;;;5152293;27;20041;-61
2022/11/12 10:04:32;;;;;;;28.92;23.92;;;460.80;2227.20;;;;;;5152371;27;20063;-65
2022/11/12 10:07:20;;;;;;;37.30;25.75;;;435.20;2355.20;;;;;;5152335;27;20022;-62
2022/11/12 10:09:59;;;;;;;32.22;26.17;;;435.60;2329.60;;;;;;5151863;27;20483;-62
2022/11/12 10:12:43;;;;;;;37.50;29.27;;;435.60;2355.20;;;;;;5152175;27;20058;-62
2022/11/12 10:18:07;;;;;;;37.17;28.55;;;435.50;2355.20;;;;;;5152023;27;20178;-63
2022/11/12 10:20:55;;;;;;;39.65;32.30;;;410.00;2355.20;;;;;;5151908;27;20046;-60
2022/11/12 10:23:46;;;;;;;40.90;33.05;;;435.20;2355.20;;;;;;5152147;27;20019;-62
2022/11/12 10:26:14;;;;;;;49.05;33.72;;;435.40;2355.20;;;;;;5151750;27;20483;-59
2022/11/12 10:28:52;;;;;;;39.38;29.55;;;410.30;2355.20;;;;;;5144903;27;20527;-60
2022/11/12 10:31:19;;;;;;;37.40;27.50;;;409.80;2355.20;;;;;;5136036;27;20080;-63
2022/11/12 10:33:45;;;;;;;34.55;25.58;;;409.80;2355.20;;;;;;5131174;27;20579;-60
2022/11/12 10:36:26;;;;;;;40.45;32.00;;;409.70;2355.20;;;;;;5131219;27;20023;-64
2022/11/12 10:38:53;;;;;;;29.42;23.40;;;410.50;2355.20;;;;;;5130780;27;20022;-60
2022/11/12 10:41:27;;;;;;;31.75;22.50;;;410.30;2355.20;;;;;;5131165;27;20054;-62
2022/11/12 10:44:01;;;;;;;35.00;25.38;;;410.20;2355.20;;;;;;5130940;27;20027;-63
2022/11/12 10:46:28;;;;;;;38.80;27.52;;;409.90;2355.20;;;;;;5131140;28;20027;-57
2022/11/12 10:48:59;;;;;;;38.42;28.42;;;410.40;2355.20;;;;;;5130793;28;20027;-60
2022/11/12 10:51:28;;;;;;;34.88;26.65;;;435.30;2355.20;;;;;;5130970;28;20023;-64
2022/11/12 10:53:53;;;;;;;32.38;26.33;;;435.30;2355.20;;;;;;5130761;28;20380;-60
2022/11/12 10:56:30;;;;;;;42.65;34.90;;;435.50;2355.20;;;;;;5131139;28;20027;-63
2022/11/12 10:59:20;;;;;;;42.10;28.13;;;435.60;2355.20;;;;;;5130961;28;20429;-63
2022/11/12 11:01:57;;;;;;;37.13;26.35;;;435.80;2355.20;;;;;;5130821;28;20074;-63
2022/11/12 11:04:36;;;;;;;29.92;22.42;;;435.50;2355.20;;;;;;5130849;28;20046;-62
2022/11/12 11:07:20;;;;;;;32.63;23.25;;;435.20;2355.20;;;;;;5134784;27;20019;-62
2022/11/12 11:09:56;;;;;;;36.95;25.90;;;410.30;2355.20;;;;;;5134835;27;20027;-62
2022/11/12 11:12:30;;;;;;;42.20;31.73;;;410.20;2355.20;;;;;;5134754;27;20030;-61
2022/11/12 11:15:07;;;;;;;35.10;25.27;;;410.30;2355.20;;;;;;5134676;27;20027;-63
2022/11/12 11:17:34;;;;;;;38.08;28.50;;;384.90;2329.60;;;;;;5134690;27;20380;-62
2022/11/12 11:20:00;;;;;;;27.05;22.27;;;384.90;2329.60;;;;;;5134823;27;20020;-62
2022/11/12 11:22:41;;;;;;;31.05;22.80;;;409.60;2355.20;;;;;;5134374;27;20515;-62
2022/11/12 11:25:15;;;;;;;34.40;24.52;;;384.70;2329.60;;;;;;5134599;27;20541;-62
2022/11/12 11:27:54;;;;;;;31.52;23.05;;;384.40;2329.60;;;;;;5134691;27;20462;-62
2022/11/12 11:30:21;;;;;;;45.78;32.75;;;384.90;2329.60;;;;;;5134989;27;20110;-62
2022/11/12 11:33:21;;;;;;;282.83;152.00;;;409.80;2355.20;;;;;;5134651;27;20452;-62
2022/11/12 11:36:03;;;;;;;37.33;27.90;;;410.20;2355.20;;;;;;5134504;27;20027;-62
2022/11/12 11:38:33;;;;;;;37.13;26.20;;;435.30;2355.20;;;;;;5134520;27;20038;-59
2022/11/12 11:41:29;;;;;;;30.80;21.27;;;435.20;2355.20;;;;;;5134465;27;20042;-57
2022/11/12 11:44:00;;;;;;;62.58;53.42;;;410.20;2355.20;;;;;;5134250;27;20035;-57
2022/11/12 11:46:31;;;;;;;32.45;24.05;;;410.40;2355.20;;;;;;5134181;27;20015;-58
2022/11/12 11:49:03;;;;;;;32.67;24.17;;;435.20;2355.20;;;;;;5134425;27;20065;-63
2022/11/12 11:51:47;;;;;;;32.67;24.13;;;435.30;2355.20;;;;;;5134432;27;20123;-57
2022/11/12 11:55:02;;;;;;;32.72;21.45;;;410.50;2355.20;;;;;;5134073;27;20084;-57
2022/11/12 11:57:51;;;;;;;32.10;25.02;;;409.90;2355.20;;;;;;5050814;28;20041;-60
2022/11/12 12:00:21;;;;;;;39.20;25.08;;;409.80;2355.20;;;;;;5049970;28;20083;-64
2022/11/12 12:02:50;;;;;;;33.63;21.67;;;409.90;2355.20;;;;;;5050722;28;20029;-57
2022/11/12 12:05:46;;;;;;;35.55;23.58;;;410.00;2355.20;;;;;;5050489;28;20017;-65
2022/11/12 12:08:14;;;;;;;25.67;19.38;;;410.00;2355.20;;;;;;5050580;28;20041;-62
2022/11/12 12:10:40;;;;;;;24.33;18.30;;;409.70;2355.20;;;;;;5050482;28;20174;-58
2022/11/12 12:13:11;;;;;;;29.75;23.35;;;384.90;2329.60;;;;;;5050164;28;20057;-58
2022/11/12 12:15:56;;;;;;;21.80;16.27;;;410.00;2355.20;;;;;;5050190;28;20040;-58
2022/11/12 12:18:36;;;;;;;27.08;20.05;;;410.00;2355.20;;;;;;5046927;28;20499;-58
2022/11/12 12:21:10;;;;;;;32.15;21.38;;;410.10;2355.20;;;;;;5048016;28;20136;-58
2022/11/12 12:23:43;;;;;;;28.85;22.48;;;410.50;2355.20;;;;;;5048233;28;20021;-57
2022/11/12 12:26:18;;;;;;;28.27;20.63;;;435.30;2355.20;;;;;;5048363;28;20383;-64
2022/11/12 12:29:00;;;;;;;28.05;21.08;;;435.20;2355.20;;;;;;5048079;28;20044;-63